Winston Salem, NC (27105)

11:01 PM EDT on June 01, 2015 (GMT -0400)
525 Vine | | Change Station
CLOSE
Current Station
Personal Weather Station
Location: Winston-Salem, NC
Elevation: 912 ft
Nearby Weather Stations

Elev 912 ft 36.10 °N, 80.24 °W | Updated 1 second ago

Partly Cloudy
Partly Cloudy
71.5 °F
Feels Like 74 °F
N
2.0
Wind Variable Wind from NW
Gusts 5.0 mph

Today
High -- | Low -- °F
--% Chance of Precip.
Yesterday
High -- | Low -- °F
Precip. -- in
6:05 AM 8:32 PM
Full, 100% visible
Pressure 30.03 in
Visibility 10.0 miles
Clouds Few 10000 ft
Heat Index 74 °F
Dew Point 61 °F
Humidity 70%
Rainfall in
Snow Depth Not available.
UV 0 out of 12
Pollen 7.40 out of 12
Air Quality Not available.
Flu Activity No Activity
METAR KINT 020254Z AUTO 28004KT 10SM FEW100 22/16 A3006 RMK AO2 SLP169 T02220156 53016

More Conditions Fewer Conditions

Pressure 30.03 in
Visibility 10.0 miles
Clouds Few 10000 ft
Heat Index 74 °F
Dew Point 61 °F
Humidity 70%
Rainfall in
Snow Depth Not available.
UV 0 out of 12
Pollen 7.40 out of 12
Air Quality Not available.
Flu Activity No Activity
METAR KINT 020254Z AUTO 28004KT 10SM FEW100 22/16 A3006 RMK AO2 SLP169 T02220156 53016

More Conditions Fewer Conditions

10-Day Weather Forecast

Almanac

Astronomy

Jun. 01, 2015 Rise Set
Actual Time
Civil Twilight
Nautical Twilight
Astronomical Twilight
Moon
Length of Visible Light
Length of Day
Tomorrow will be .
, % of the Moon is Illuminated

Today's Extremes

State Highs State Lows

Community

WunderPhotos

Upload Photos

1,825,865 photos uploaded!

WunderBlogs® & News

Nearby

Air Quality

  Air Quality AQ Index Pollutant
Not available.

Snow Depth

Station Depth Elevation

Earthquake Activity

City Distance Mag. Time & Date
Minimum magnitude displayed is 2.5.

Coastal Water Temperatures

Place Temperature

Stations

Nearby Weather Stations

Station Location Temp. Windchill Dew Point Humidity Wind Precip. Elev Updated Type